Time;durP1;ratioP1;P1;durP2;ratioP2;P2;SDS_P1;SDS_P2;PMS_P1;PMS_P2;Temp;Humidity;BMP_temperature;BMP_pressure;BME280_temperature;BME280_humidity;BME280_pressure;Samples;Min_cycle;Max_cycle;Signal;HPM_P1;HPM_P2
2022/01/04 04:03:06;;;;;;;16.20;9.95;;;7.30;95.10;;;;;;5092940;28;20101;-50
2022/01/04 04:05:31;;;;;;;15.02;11.10;;;7.40;95.10;;;;;;5091463;28;20115;-51
2022/01/04 04:07:57;;;;;;;18.92;11.85;;;7.40;94.90;;;;;;5091854;28;20020;-53
2022/01/04 04:10:23;;;;;;;15.27;10.45;;;7.50;94.80;;;;;;5091832;28;20033;-51
2022/01/04 04:12:48;;;;;;;17.30;10.35;;;7.50;94.50;;;;;;5090881;28;20413;-49
2022/01/04 04:15:14;;;;;;;17.50;9.38;;;7.60;94.40;;;;;;5092465;28;20060;-52
2022/01/04 04:17:39;;;;;;;14.95;9.05;;;7.60;94.00;;;;;;5090911;28;20055;-48
2022/01/04 04:20:06;;;;;;;13.45;9.32;;;7.60;93.90;;;;;;5090900;28;20063;-54
2022/01/04 04:22:32;;;;;;;11.90;7.88;;;7.60;93.70;;;;;;5091368;28;20487;-51
2022/01/04 04:24:58;;;;;;;12.27;8.32;;;7.60;93.80;;;;;;5091528;28;20031;-48
2022/01/04 04:27:24;;;;;;;16.65;9.02;;;7.60;93.90;;;;;;5091147;28;20023;-49
2022/01/04 04:29:49;;;;;;;14.68;7.93;;;7.70;93.50;;;;;;5091785;28;20461;-50
2022/01/04 04:32:15;;;;;;;11.48;7.20;;;7.60;93.50;;;;;;5091286;28;20108;-51
2022/01/04 04:34:41;;;;;;;11.18;7.30;;;7.60;93.70;;;;;;5091275;28;20028;-50
2022/01/04 04:37:06;;;;;;;10.90;6.72;;;7.60;93.80;;;;;;5091279;28;20028;-49
2022/01/04 04:39:32;;;;;;;12.55;6.88;;;7.60;93.70;;;;;;5090999;28;20468;-49
2022/01/04 04:41:58;;;;;;;9.80;6.60;;;7.70;93.80;;;;;;5091755;28;20040;-48
2022/01/04 04:44:23;;;;;;;11.77;7.82;;;7.70;93.60;;;;;;5091993;28;20054;-48
2022/01/04 04:46:49;;;;;;;7.47;5.63;;;7.70;93.50;;;;;;5091477;28;20020;-48
2022/01/04 04:49:15;;;;;;;15.68;6.85;;;7.60;93.40;;;;;;5090902;28;20076;-51
2022/01/04 04:51:42;;;;;;;13.30;6.50;;;7.60;93.50;;;;;;5089146;28;20036;-51
2022/01/04 04:54:07;;;;;;;12.85;6.35;;;7.60;93.50;;;;;;5092357;28;20037;-50
2022/01/04 04:56:34;;;;;;;9.15;6.57;;;7.60;93.60;;;;;;5090688;28;20039;-52
2022/01/04 04:59:00;;;;;;;10.95;6.80;;;7.60;93.70;;;;;;5090953;28;20380;-51
2022/01/04 05:01:26;;;;;;;10.23;5.93;;;7.60;93.50;;;;;;5090932;28;20040;-50
2022/01/04 05:03:55;;;;;;;10.70;6.63;;;7.60;93.60;;;;;;5090745;28;20426;-50
2022/01/04 05:06:20;;;;;;;11.48;7.20;;;7.60;93.70;;;;;;5091328;28;20024;-52
2022/01/04 05:08:46;;;;;;;12.40;7.53;;;7.70;93.20;;;;;;5090626;28;20032;-50
2022/01/04 05:11:11;;;;;;;18.02;8.25;;;7.60;93.10;;;;;;5090921;28;20526;-50
2022/01/04 05:13:37;;;;;;;12.60;8.55;;;7.60;93.30;;;;;;5082623;28;20468;-49
2022/01/04 05:16:03;;;;;;;16.52;10.10;;;7.70;93.50;;;;;;5075976;28;20035;-50
2022/01/04 05:18:28;;;;;;;14.18;9.13;;;7.70;93.50;;;;;;5078074;28;20031;-49
2022/01/04 05:20:54;;;;;;;17.35;8.70;;;7.70;93.50;;;;;;5077861;28;20093;-50
2022/01/04 05:23:20;;;;;;;14.30;9.85;;;7.60;93.40;;;;;;5077430;28;20020;-50
2022/01/04 05:25:45;;;;;;;17.92;9.30;;;7.50;93.50;;;;;;5076969;28;20035;-49
2022/01/04 05:28:11;;;;;;;17.67;9.40;;;7.60;93.50;;;;;;5077910;28;20028;-49
2022/01/04 05:30:38;;;;;;;13.43;9.23;;;7.60;93.70;;;;;;5076888;28;20033;-50
2022/01/04 05:33:03;;;;;;;19.73;9.23;;;7.70;93.70;;;;;;5078120;28;20023;-38
2022/01/04 05:35:29;;;;;;;10.82;7.50;;;7.70;93.10;;;;;;5076823;28;20520;-42
2022/01/04 05:37:55;;;;;;;15.00;9.20;;;7.60;93.20;;;;;;5077711;28;20099;-39
2022/01/04 05:40:20;;;;;;;21.50;12.25;;;7.50;93.30;;;;;;5077003;28;20112;-38
2022/01/04 05:42:46;;;;;;;18.20;10.70;;;7.50;93.20;;;;;;5076242;28;20037;-38
2022/01/04 05:45:12;;;;;;;21.92;11.82;;;7.60;93.00;;;;;;5077927;28;20083;-41
2022/01/04 05:47:37;;;;;;;20.27;11.32;;;7.50;93.10;;;;;;5076671;28;20501;-38
2022/01/04 05:50:05;;;;;;;20.52;11.00;;;7.50;93.10;;;;;;5076756;28;20419;-37
2022/01/04 05:52:32;;;;;;;19.65;10.13;;;7.50;93.30;;;;;;5076434;28;20027;-38
2022/01/04 05:54:58;;;;;;;18.13;10.80;;;7.60;93.30;;;;;;5076331;28;20024;-38
2022/01/04 05:57:24;;;;;;;20.00;10.68;;;7.70;93.10;;;;;;5076107;28;20570;-38
2022/01/04 05:59:49;;;;;;;19.05;10.38;;;7.50;92.80;;;;;;5075966;28;20035;-38
2022/01/04 06:02:15;;;;;;;16.40;8.18;;;7.50;93.00;;;;;;5075886;28;20059;-39
2022/01/04 06:04:41;;;;;;;18.95;10.40;;;7.50;93.10;;;;;;5075797;28;20070;-38
2022/01/04 06:07:07;;;;;;;16.77;9.35;;;7.60;93.20;;;;;;5075731;28;20021;-37
2022/01/04 06:09:41;;;;;;;15.13;9.52;;;7.60;93.20;;;;;;5075592;28;20100;-38
2022/01/04 06:14:50;;;;;;;21.35;9.77;;;7.50;93.20;;;;;;5076548;28;20059;-38
2022/01/04 06:14:54;;;;;;;17.85;9.00;;;7.50;93.40;;;;;;5075151;28;20037;-39
2022/01/04 06:17:44;;;;;;;15.98;8.90;;;7.50;93.20;;;;;;5076308;28;20033;-38
2022/01/04 06:20:13;;;;;;;17.70;10.63;;;7.60;93.30;;;;;;5075469;28;20123;-38
2022/01/04 06:22:39;;;;;;;18.33;9.20;;;7.70;93.00;;;;;;5075840;28;20035;-37
2022/01/04 06:25:08;;;;;;;15.50;8.70;;;7.60;92.80;;;;;;5075062;28;20017;-37
2022/01/04 06:27:34;;;;;;;15.27;9.93;;;7.60;92.80;;;;;;5075169;28;20043;-38
2022/01/04 06:30:00;;;;;;;17.55;9.85;;;7.70;92.80;;;;;;5074431;28;20024;-38
2022/01/04 06:32:26;;;;;;;20.95;10.23;;;7.60;92.70;;;;;;5075388;28;20024;-38
2022/01/04 06:34:52;;;;;;;17.45;11.73;;;7.50;92.90;;;;;;5075340;28;20381;-38
2022/01/04 06:37:18;;;;;;;20.98;10.55;;;7.60;93.10;;;;;;5075875;28;20051;-38
2022/01/04 06:39:44;;;;;;;18.50;10.05;;;7.50;93.10;;;;;;5074713;28;20103;-38
2022/01/04 06:42:11;;;;;;;16.23;9.38;;;7.50;93.10;;;;;;5075171;28;20075;-38
2022/01/04 06:44:38;;;;;;;21.20;10.65;;;7.50;93.00;;;;;;5075910;28;20016;-52
2022/01/04 06:47:05;;;;;;;15.50;9.80;;;7.50;93.00;;;;;;5075454;28;20051;-48
2022/01/04 06:49:31;;;;;;;16.20;10.13;;;7.50;93.00;;;;;;5075180;28;20032;-48
2022/01/04 06:51:57;;;;;;;17.33;10.45;;;7.50;93.00;;;;;;5075056;28;20025;-49
2022/01/04 06:54:23;;;;;;;20.00;11.45;;;7.40;93.10;;;;;;5075164;28;20457;-48
2022/01/04 06:56:49;;;;;;;17.55;9.45;;;7.50;93.10;;;;;;5074926;28;20024;-50
2022/01/04 06:59:16;;;;;;;18.35;11.40;;;7.50;92.90;;;;;;5075284;28;20044;-47
2022/01/04 07:01:42;;;;;;;17.17;10.98;;;7.50;93.10;;;;;;5077044;28;20040;-47
2022/01/04 07:04:08;;;;;;;38.38;24.02;;;7.60;93.20;;;;;;5074392;28;20035;-50
2022/01/04 07:06:34;;;;;;;27.92;15.10;;;7.50;93.00;;;;;;5074267;28;20021;-48
2022/01/04 07:09:00;;;;;;;29.60;16.13;;;7.50;93.10;;;;;;5074252;28;20021;-48
2022/01/04 07:11:26;;;;;;;29.90;14.13;;;7.50;93.00;;;;;;5073730;28;20039;-53
2022/01/04 07:13:52;;;;;;;23.55;12.73;;;7.60;93.00;;;;;;5072714;28;20029;-49
2022/01/04 07:16:17;;;;;;;21.63;11.85;;;7.60;92.60;;;;;;5074758;28;20483;-50
2022/01/04 07:18:48;;;;;;;22.00;13.05;;;7.60;92.70;;;;;;5075004;28;20043;-49
2022/01/04 07:21:15;;;;;;;26.50;12.27;;;7.50;92.80;;;;;;5075093;28;20033;-48
2022/01/04 07:23:42;;;;;;;21.77;12.48;;;7.50;92.80;;;;;;5074743;28;20032;-52
2022/01/04 07:26:11;;;;;;;22.73;13.85;;;7.60;92.70;;;;;;5074892;28;20379;-53
2022/01/04 07:28:40;;;;;;;24.37;13.90;;;7.60;92.70;;;;;;5074417;28;20024;-49
2022/01/04 07:31:06;;;;;;;23.40;11.80;;;7.60;92.70;;;;;;5072540;28;20122;-49
2022/01/04 07:33:32;;;;;;;25.33;12.10;;;7.70;92.70;;;;;;5074753;28;20029;-49
2022/01/04 07:35:58;;;;;;;25.67;12.52;;;7.60;92.50;;;;;;5072743;28;20025;-49
2022/01/04 07:38:23;;;;;;;22.73;12.38;;;7.50;92.70;;;;;;5075502;28;20114;-49
2022/01/04 07:40:49;;;;;;;20.65;11.80;;;7.60;92.70;;;;;;5074353;28;20534;-51
2022/01/04 07:43:18;;;;;;;20.90;11.65;;;7.60;92.50;;;;;;5074284;28;20016;-49
2022/01/04 07:45:43;;;;;;;19.40;10.80;;;7.60;92.60;;;;;;5073590;28;20028;-48
2022/01/04 07:48:12;;;;;;;19.38;11.27;;;7.60;92.60;;;;;;5073715;28;20028;-49
2022/01/04 07:50:39;;;;;;;23.15;10.23;;;7.50;92.50;;;;;;5072277;28;20108;-50
2022/01/04 07:53:06;;;;;;;18.83;9.57;;;7.60;92.40;;;;;;5074101;28;20056;-50
2022/01/04 07:55:32;;;;;;;17.17;9.88;;;7.70;92.50;;;;;;5073954;28;20029;-49
2022/01/04 07:57:58;;;;;;;20.15;11.18;;;7.80;92.20;;;;;;5071878;28;20385;-48
2022/01/04 08:00:25;;;;;;;21.73;10.82;;;7.70;92.40;;;;;;5074581;28;20029;-48
2022/01/04 14:03:27;;;;;;;9.02;5.65;;;7.20;91.40;;;;;;5111248;27;20154;-49
2022/01/04 14:05:53;;;;;;;16.20;6.25;;;7.00;91.50;;;;;;5112470;28;20528;-48
2022/01/04 14:08:19;;;;;;;10.77;5.72;;;6.90;92.20;;;;;;5110967;28;20016;-49
2022/01/04 14:10:46;;;;;;;11.45;7.05;;;6.80;92.60;;;;;;5111521;28;20024;-49
2022/01/04 14:13:36;;;;;;;11.75;6.75;;;6.80;92.80;;;;;;5111272;28;20023;-48
2022/01/04 14:16:21;;;;;;;12.30;7.70;;;6.80;93.00;;;;;;5109815;28;20016;-48
2022/01/04 14:19:09;;;;;;;13.07;7.70;;;6.80;93.20;;;;;;5090428;28;20039;-48
2022/01/04 14:21:36;;;;;;;11.10;7.35;;;6.90;93.20;;;;;;5090678;28;20016;-50
2022/01/04 14:24:30;;;;;;;15.38;7.57;;;7.00;93.10;;;;;;5088910;28;20036;-48
2022/01/04 14:26:57;;;;;;;14.30;5.07;;;6.90;92.60;;;;;;5091087;28;20073;-47
2022/01/04 14:29:27;;;;;;;9.32;4.85;;;7.00;91.40;;;;;;5090774;28;20025;-48
2022/01/04 14:32:03;;;;;;;;;;;7.10;91.80;;;;;;5091287;28;20480;-48
2022/01/04 14:34:30;;;;;;;8.90;3.65;;;7.00;91.80;;;;;;5090081;28;19942;-48
2022/01/04 14:36:55;;;;;;;5.68;2.65;;;6.90;91.40;;;;;;5091405;28;20032;-49
2022/01/04 14:39:22;;;;;;;7.22;3.42;;;6.90;91.20;;;;;;5089908;28;20032;-47
2022/01/04 14:41:48;;;;;;;3.42;2.22;;;6.90;90.90;;;;;;5090350;28;20111;-48
2022/01/04 14:44:14;;;;;;;5.10;2.20;;;6.90;90.60;;;;;;5091209;28;20457;-48
2022/01/04 14:46:40;;;;;;;2.55;1.38;;;6.90;90.80;;;;;;5090146;28;20023;-48
2022/01/04 14:49:05;;;;;;;1.75;1.05;;;6.90;90.70;;;;;;5089631;28;20016;-48
2022/01/04 14:51:31;;;;;;;4.05;1.90;;;6.80;90.90;;;;;;5090043;28;20028;-48
2022/01/04 14:53:56;;;;;;;4.03;1.35;;;6.80;91.20;;;;;;5090126;28;20107;-50
2022/01/04 14:56:22;;;;;;;6.75;2.08;;;6.80;91.30;;;;;;5090267;28;20028;-49
2022/01/04 14:58:48;;;;;;;3.40;2.10;;;6.80;91.30;;;;;;5089468;28;20398;-47
2022/01/04 15:01:13;;;;;;;1.80;1.30;;;6.80;91.40;;;;;;5089588;28;20044;-47
2022/01/04 15:03:39;;;;;;;4.97;3.22;;;6.80;91.60;;;;;;5089103;28;20399;-49
2022/01/04 15:06:05;;;;;;;6.43;2.75;;;6.80;91.80;;;;;;5090882;28;20379;-51
2022/01/04 15:08:31;;;;;;;5.60;1.90;;;6.80;91.80;;;;;;5089612;28;20020;-49
2022/01/04 15:10:57;;;;;;;5.32;1.80;;;6.80;91.90;;;;;;5088959;28;20090;-51
2022/01/04 15:13:23;;;;;;;8.35;4.57;;;6.90;91.90;;;;;;5082268;28;20025;-48
2022/01/04 15:15:48;;;;;;;3.47;1.90;;;6.80;92.10;;;;;;5075836;28;20390;-47
2022/01/04 15:18:14;;;;;;;2.45;1.92;;;6.80;92.20;;;;;;5073792;28;20029;-48
2022/01/04 15:20:40;;;;;;;7.50;2.17;;;6.90;92.30;;;;;;5075296;28;20100;-52
2022/01/04 15:23:05;;;;;;;3.42;2.10;;;6.90;92.30;;;;;;5076707;28;20330;-50
2022/01/04 15:25:31;;;;;;;4.45;2.28;;;6.90;92.50;;;;;;5076124;28;20021;-52
2022/01/04 15:27:57;;;;;;;5.03;2.45;;;6.90;92.50;;;;;;5075678;28;20021;-52
2022/01/04 15:30:25;;;;;;;4.43;2.22;;;6.90;92.60;;;;;;5075889;28;20082;-50
2022/01/04 15:32:50;;;;;;;4.65;2.90;;;6.80;92.80;;;;;;5076014;28;20039;-49
2022/01/04 15:35:16;;;;;;;5.15;2.60;;;6.80;92.80;;;;;;5075697;28;20060;-48
2022/01/04 15:37:43;;;;;;;9.50;4.07;;;6.90;92.90;;;;;;5076408;28;20025;-51
2022/01/04 15:40:13;;;;;;;5.60;3.47;;;6.90;92.70;;;;;;5076771;28;20028;-50
2022/01/04 15:42:39;;;;;;;;;;;6.80;93.20;;;;;;5076420;28;20031;-50
2022/01/04 15:45:05;;;;;;;7.53;3.53;;;6.80;93.30;;;;;;5075643;28;19939;-50
2022/01/04 15:47:31;;;;;;;8.48;4.28;;;6.90;93.10;;;;;;5076268;28;20040;-49
2022/01/04 15:49:57;;;;;;;7.80;3.83;;;7.00;93.20;;;;;;5075824;28;20054;-49
2022/01/04 15:52:23;;;;;;;6.72;3.58;;;7.00;92.90;;;;;;5075587;28;20020;-48
2022/01/04 15:54:48;;;;;;;8.48;4.80;;;6.90;93.20;;;;;;5073733;28;20036;-53
2022/01/04 15:57:15;;;;;;;10.32;5.93;;;6.90;93.40;;;;;;5073681;28;20028;-50
2022/01/04 15:59:41;;;;;;;11.60;6.13;;;7.10;93.30;;;;;;5073550;28;20024;-49
2022/01/04 16:02:07;;;;;;;13.07;7.05;;;7.10;93.20;;;;;;5073641;28;20583;-50
2022/01/04 16:04:34;;;;;;;10.70;5.78;;;7.10;93.10;;;;;;5073769;28;20028;-48
2022/01/04 16:06:59;;;;;;;12.07;6.50;;;7.10;93.10;;;;;;5075064;28;20063;-50
2022/01/04 16:09:27;;;;;;;16.65;7.10;;;7.10;93.20;;;;;;5075467;28;20017;-48
2022/01/04 16:11:53;;;;;;;12.23;7.18;;;7.10;93.20;;;;;;5074937;28;20025;-51
2022/01/04 16:14:18;;;;;;;14.13;8.30;;;7.00;93.10;;;;;;5074695;28;20423;-49
2022/01/04 16:17:02;;;;;;;11.20;7.40;;;7.10;93.30;;;;;;5074821;28;20044;-50
2022/01/04 16:22:11;;;;;;;10.57;6.50;;;7.10;92.80;;;;;;5075147;28;20498;-48
2022/01/04 16:24:37;;;;;;;10.90;6.28;;;7.00;92.40;;;;;;5073739;28;20453;-48
2022/01/04 16:27:03;;;;;;;10.05;6.97;;;7.10;92.40;;;;;;5074900;28;20017;-48
2022/01/04 16:29:28;;;;;;;13.65;6.88;;;7.00;92.30;;;;;;5074936;28;20081;-50
2022/01/04 16:31:57;;;;;;;13.27;6.72;;;7.10;92.40;;;;;;5074337;28;20024;-49
2022/01/04 16:34:24;;;;;;;9.77;6.82;;;7.00;92.40;;;;;;5075290;28;20039;-52
2022/01/04 16:36:52;;;;;;;12.52;6.25;;;7.10;92.60;;;;;;5074292;28;20029;-49
2022/01/04 16:39:21;;;;;;;13.68;7.32;;;7.10;92.30;;;;;;5074626;28;20025;-49
2022/01/04 16:41:48;;;;;;;10.55;6.20;;;7.10;92.20;;;;;;5074590;28;20036;-51
2022/01/04 16:44:14;;;;;;;13.48;7.28;;;7.10;92.20;;;;;;5074646;28;20030;-52
2022/01/04 16:46:42;;;;;;;16.27;8.27;;;7.10;92.30;;;;;;5074155;28;20032;-48
2022/01/04 16:49:10;;;;;;;14.93;8.15;;;7.10;92.10;;;;;;5074237;28;20024;-50
2022/01/04 16:51:37;;;;;;;17.92;8.20;;;7.10;92.20;;;;;;5074192;28;20402;-48
2022/01/04 16:54:03;;;;;;;13.73;7.15;;;7.30;92.20;;;;;;5072829;28;20025;-50
2022/01/04 16:56:29;;;;;;;11.13;5.43;;;7.30;91.60;;;;;;5073862;28;20051;-50
2022/01/04 16:58:55;;;;;;;7.90;4.43;;;7.20;89.90;;;;;;5073197;28;20061;-49
2022/01/04 17:01:21;;;;;;;5.20;3.67;;;7.00;90.10;;;;;;5073741;28;20044;-52
2022/01/04 17:03:47;;;;;;;7.85;3.45;;;7.00;90.20;;;;;;5074822;28;20039;-49
2022/01/04 17:06:14;;;;;;;5.15;3.00;;;7.00;89.80;;;;;;5074591;28;20020;-47
2022/01/04 17:08:43;;;;;;;4.85;3.38;;;6.90;89.30;;;;;;5074387;28;20380;-48
2022/01/04 17:11:12;;;;;;;6.70;2.57;;;6.90;89.70;;;;;;5073658;28;20059;-48
2022/01/04 17:16:23;;;;;;;3.58;2.58;;;6.90;89.50;;;;;;5074408;28;20035;-52
2022/01/04 17:18:51;;;;;;;5.63;3.03;;;6.90;89.20;;;;;;5073577;28;20029;-48
2022/01/04 17:21:20;;;;;;;7.03;4.50;;;6.80;89.60;;;;;;5074130;28;20032;-50
2022/01/04 17:23:47;;;;;;;8.70;3.40;;;6.80;90.00;;;;;;5075309;28;20024;-50
2022/01/04 17:26:16;;;;;;;3.53;2.60;;;6.70;89.70;;;;;;5074992;28;20262;-50
2022/01/04 17:28:42;;;;;;;6.60;3.58;;;6.80;90.60;;;;;;5074488;28;20039;-49
2022/01/04 17:31:08;;;;;;;12.73;5.03;;;6.70;90.20;;;;;;5073643;28;20479;-49
2022/01/04 17:33:34;;;;;;;4.38;3.00;;;6.80;90.30;;;;;;5071820;28;20025;-51
2022/01/04 17:36:00;;;;;;;6.88;3.33;;;6.60;90.00;;;;;;5072716;28;20473;-49
2022/01/04 17:38:26;;;;;;;5.47;3.78;;;6.60;89.80;;;;;;5073237;28;20178;-49
2022/01/04 17:40:51;;;;;;;5.28;3.20;;;6.40;89.60;;;;;;5073745;28;20024;-52
2022/01/04 17:43:17;;;;;;;6.93;3.42;;;6.40;89.60;;;;;;5074372;28;20126;-50
2022/01/04 17:45:44;;;;;;;5.03;3.72;;;6.40;89.70;;;;;;5074643;28;20028;-49
2022/01/04 17:48:09;;;;;;;6.43;3.65;;;6.40;89.50;;;;;;5074374;28;20033;-49
2022/01/04 17:50:42;;;;;;;5.20;3.33;;;6.40;89.50;;;;;;5072324;28;20445;-50
2022/01/04 17:53:08;;;;;;;4.93;3.55;;;6.40;89.50;;;;;;5072027;28;20028;-48
2022/01/04 17:55:34;;;;;;;5.25;2.85;;;6.40;89.00;;;;;;5072073;28;20109;-53
2022/01/04 17:58:02;;;;;;;5.15;3.30;;;6.30;88.70;;;;;;5074130;28;20052;-50
2022/01/04 18:00:29;;;;;;;4.18;2.80;;;6.30;88.80;;;;;;5072037;28;20369;-50
2022/01/04 18:02:55;;;;;;;3.53;2.63;;;6.20;89.00;;;;;;5073506;28;20048;-49
2022/01/04 18:05:21;;;;;;;5.78;3.00;;;6.10;89.70;;;;;;5072497;28;20025;-51
2022/01/04 18:07:48;;;;;;;6.00;2.97;;;6.20;90.10;;;;;;5072148;28;20054;-51
2022/01/04 18:10:14;;;;;;;5.38;2.72;;;6.20;88.50;;;;;;5073131;28;20393;-49
2022/01/04 18:12:40;;;;;;;4.38;2.33;;;6.30;88.30;;;;;;5073630;28;20445;-49
2022/01/04 18:15:07;;;;;;;4.60;2.83;;;6.30;88.00;;;;;;5073699;28;20020;-51
2022/01/04 18:17:33;;;;;;;3.67;2.80;;;6.30;87.90;;;;;;5074322;28;20036;-50
2022/01/04 18:19:58;;;;;;;7.25;4.20;;;6.20;89.20;;;;;;5073835;28;20063;-52
2022/01/04 18:22:25;;;;;;;6.75;2.95;;;6.00;89.40;;;;;;5073099;28;20033;-49
2022/01/04 18:24:52;;;;;;;6.82;3.63;;;6.10;90.00;;;;;;5073725;28;20527;-50
2022/01/04 18:27:19;;;;;;;9.73;3.20;;;6.20;90.00;;;;;;5071614;28;20031;-50
2022/01/04 18:29:46;;;;;;;3.25;2.42;;;6.20;89.20;;;;;;5072914;28;20226;-51
2022/01/04 18:32:11;;;;;;;5.88;2.65;;;6.10;89.00;;;;;;5072912;28;20021;-47
2022/01/04 18:34:37;;;;;;;5.35;2.60;;;6.10;89.20;;;;;;5072606;28;20482;-51
2022/01/04 18:37:03;;;;;;;5.63;3.35;;;6.20;88.70;;;;;;5072495;28;20064;-52
2022/01/04 18:39:29;;;;;;;5.25;2.47;;;6.10;88.40;;;;;;5072430;28;20107;-47
2022/01/04 18:41:58;;;;;;;6.40;2.80;;;6.20;87.80;;;;;;5072964;28;20107;-50
2022/01/04 18:44:24;;;;;;;4.90;2.45;;;6.10;87.70;;;;;;5072921;28;20039;-50
2022/01/04 18:46:49;;;;;;;8.02;3.10;;;6.10;88.30;;;;;;5072810;28;20020;-51
2022/01/04 18:49:16;;;;;;;3.20;2.63;;;6.00;88.20;;;;;;5075352;28;20024;-48
2022/01/04 18:51:42;;;;;;;2.58;1.95;;;6.10;88.10;;;;;;5076345;28;20027;-50
2022/01/04 18:54:08;;;;;;;10.00;2.97;;;6.00;88.00;;;;;;5077418;28;20021;-47
2022/01/04 18:56:34;;;;;;;4.05;3.00;;;5.90;87.70;;;;;;5077473;28;20050;-48
2022/01/04 18:59:03;;;;;;;7.05;2.92;;;5.90;87.60;;;;;;5077422;28;20035;-51
2022/01/04 19:01:33;;;;;;;4.82;3.15;;;5.80;87.80;;;;;;5076417;28;20094;-50
2022/01/04 19:03:59;;;;;;;6.45;3.08;;;5.70;88.20;;;;;;5076322;28;20028;-48
2022/01/04 19:06:26;;;;;;;7.60;3.10;;;5.80;88.30;;;;;;5076583;28;20021;-47
2022/01/04 19:08:51;;;;;;;6.80;2.67;;;5.80;88.20;;;;;;5077010;28;20357;-50
2022/01/04 19:11:17;;;;;;;10.05;3.35;;;5.80;87.10;;;;;;5076807;28;20107;-50
2022/01/04 19:13:43;;;;;;;8.88;2.97;;;5.80;87.10;;;;;;5076542;28;20021;-52
2022/01/04 19:16:10;;;;;;;4.15;2.22;;;5.60;87.20;;;;;;5076699;28;20028;-50
2022/01/04 19:18:35;;;;;;;8.20;3.13;;;5.60;88.00;;;;;;5076150;28;20032;-51
2022/01/04 19:21:03;;;;;;;5.32;2.38;;;5.40;88.10;;;;;;5076745;28;20103;-47
2022/01/04 19:23:29;;;;;;;3.40;1.98;;;5.40;88.20;;;;;;5076620;28;20027;-52
2022/01/04 19:25:56;;;;;;;7.13;2.35;;;5.40;88.30;;;;;;5075549;28;20434;-50
2022/01/04 19:28:25;;;;;;;6.32;2.15;;;5.30;88.20;;;;;;5077881;28;20048;-52
2022/01/04 19:30:55;;;;;;;10.23;2.92;;;5.30;88.70;;;;;;5074747;28;20024;-52
2022/01/04 19:36:15;;;;;;;13.20;2.60;;;5.30;88.30;;;;;;5075908;28;20025;-50
2022/01/04 19:39:15;;;;;;;9.68;2.78;;;5.20;88.50;;;;;;5076652;28;20448;-54
2022/01/04 19:41:40;;;;;;;2.50;1.88;;;5.10;89.20;;;;;;5072998;28;20036;-49
2022/01/04 19:44:10;;;;;;;5.72;2.08;;;5.30;89.30;;;;;;5075333;28;20585;-52
2022/01/04 19:46:37;;;;;;;4.75;1.88;;;5.20;89.10;;;;;;5075031;28;20016;-49
2022/01/04 19:49:05;;;;;;;5.00;2.60;;;5.10;89.30;;;;;;5075278;28;20028;-48
2022/01/04 19:51:31;;;;;;;6.07;2.63;;;5.20;89.40;;;;;;5075325;28;20037;-48
2022/01/04 19:53:58;;;;;;;4.82;2.00;;;5.40;89.00;;;;;;5075406;28;20064;-49
2022/01/04 19:56:24;;;;;;;3.75;2.35;;;5.60;88.10;;;;;;5076012;28;20025;-50
2022/01/04 19:58:51;;;;;;;5.82;2.30;;;5.70;87.60;;;;;;5073806;28;20131;-49
2022/01/04 20:01:19;;;;;;;6.47;2.20;;;5.70;87.50;;;;;;5074379;28;20052;-49
2022/01/04 20:03:46;;;;;;;8.15;2.72;;;5.70;87.10;;;;;;5075124;28;20023;-50
2022/01/04 20:06:15;;;;;;;10.05;2.88;;;5.70;87.10;;;;;;5075717;28;20085;-49
2022/01/04 20:08:41;;;;;;;8.23;2.65;;;5.70;87.10;;;;;;5074088;28;20021;-53
2022/01/04 20:11:08;;;;;;;9.63;2.95;;;5.60;87.50;;;;;;5075967;28;20074;-50
2022/01/04 20:13:34;;;;;;;6.30;2.00;;;5.60;87.20;;;;;;5074295;28;20024;-56
2022/01/04 20:16:00;;;;;;;4.75;2.15;;;5.50;87.50;;;;;;5075297;28;20029;-49
2022/01/04 20:18:26;;;;;;;6.63;2.30;;;5.50;87.70;;;;;;5075756;28;20465;-51
2022/01/04 20:20:52;;;;;;;6.93;2.78;;;5.40;87.70;;;;;;5074882;28;20021;-49
2022/01/04 20:23:17;;;;;;;6.63;2.35;;;5.20;88.50;;;;;;5073956;28;20039;-51
2022/01/04 20:25:45;;;;;;;5.65;2.70;;;5.10;89.10;;;;;;5075485;28;20514;-53
2022/01/04 20:28:11;;;;;;;6.35;3.30;;;5.00;89.40;;;;;;5074550;28;20020;-53
2022/01/04 20:30:38;;;;;;;4.78;2.28;;;5.00;90.10;;;;;;5074735;28;20028;-47
2022/01/04 20:33:03;;;;;;;8.88;2.40;;;5.00;89.80;;;;;;5075028;28;20021;-52
2022/01/04 20:35:31;;;;;;;8.00;3.20;;;5.00;90.20;;;;;;5073025;28;20028;-48
2022/01/04 20:37:57;;;;;;;4.47;2.88;;;5.00;90.10;;;;;;5075676;28;20032;-49
2022/01/04 20:40:23;;;;;;;9.52;3.05;;;5.00;90.30;;;;;;5074945;28;20362;-52
2022/01/04 20:42:49;;;;;;;6.65;3.42;;;5.00;90.60;;;;;;5073753;28;20024;-48
2022/01/04 20:45:16;;;;;;;6.88;3.30;;;4.90;90.90;;;;;;5073946;28;20028;-49
2022/01/04 20:47:43;;;;;;;13.07;3.42;;;5.00;91.20;;;;;;5074050;28;20021;-49
2022/01/04 20:50:12;;;;;;;7.88;2.95;;;5.00;90.80;;;;;;5075119;28;20062;-52
2022/01/04 20:52:40;;;;;;;6.77;3.27;;;5.00;90.90;;;;;;5074543;28;20092;-48
2022/01/04 20:55:08;;;;;;;9.43;2.28;;;5.10;90.30;;;;;;5074469;28;20028;-50
2022/01/04 20:57:34;;;;;;;4.25;2.63;;;5.10;90.10;;;;;;5074239;28;20419;-48
2022/01/04 21:00:00;;;;;;;8.60;2.50;;;5.10;89.80;;;;;;5073126;28;20050;-49
2022/01/04 21:02:27;;;;;;;7.22;2.53;;;5.20;89.80;;;;;;5074309;28;20040;-49
2022/01/04 21:04:52;;;;;;;6.55;3.05;;;5.20;89.30;;;;;;5073899;28;20445;-48
2022/01/04 21:07:18;;;;;;;7.03;2.78;;;5.20;89.30;;;;;;5072748;28;20031;-50
2022/01/04 21:09:44;;;;;;;11.00;2.60;;;5.20;89.20;;;;;;5074959;28;20157;-51
2022/01/04 21:12:09;;;;;;;12.75;2.90;;;5.30;88.90;;;;;;5073188;28;20025;-50
2022/01/04 21:14:35;;;;;;;7.10;2.20;;;5.30;88.70;;;;;;5074773;28;20476;-50
2022/01/04 21:17:01;;;;;;;5.72;3.15;;;5.10;89.50;;;;;;5073534;28;20028;-49
2022/01/04 21:19:27;;;;;;;8.52;2.88;;;5.20;89.40;;;;;;5073839;28;20037;-49
2022/01/04 21:21:52;;;;;;;9.60;2.63;;;5.20;89.50;;;;;;5072673;28;20029;-53
2022/01/04 21:24:18;;;;;;;8.70;2.30;;;5.20;89.20;;;;;;5074269;28;20036;-53
2022/01/04 21:26:43;;;;;;;6.10;2.55;;;5.20;89.10;;;;;;5074554;28;20024;-49
2022/01/04 21:29:09;;;;;;;13.77;2.47;;;5.20;88.90;;;;;;5074265;28;20017;-52
2022/01/04 21:31:35;;;;;;;4.22;2.30;;;5.10;89.20;;;;;;5073722;28;20477;-47
2022/01/04 21:34:02;;;;;;;7.70;1.63;;;5.10;89.40;;;;;;5074139;28;20024;-48
2022/01/04 21:36:28;;;;;;;5.40;2.05;;;5.10;89.90;;;;;;5074800;28;20364;-48
2022/01/04 21:38:54;;;;;;;4.18;1.98;;;5.10;89.50;;;;;;5074069;28;20038;-49
2022/01/04 21:41:19;;;;;;;12.90;4.63;;;5.10;89.60;;;;;;5073831;28;20064;-49
2022/01/04 21:43:47;;;;;;;3.53;1.83;;;5.30;89.10;;;;;;5074253;28;20427;-51
2022/01/04 21:46:13;;;;;;;8.38;2.47;;;5.20;88.60;;;;;;5073991;28;20024;-48
2022/01/04 21:48:39;;;;;;;3.80;1.88;;;5.10;88.60;;;;;;5073470;28;20061;-49
2022/01/04 21:51:08;;;;;;;4.63;2.88;;;5.10;88.70;;;;;;5074099;28;20017;-49
2022/01/04 21:53:34;;;;;;;13.48;2.65;;;5.10;88.80;;;;;;5073144;28;20107;-49
2022/01/04 21:56:00;;;;;;;4.45;2.13;;;5.00;89.00;;;;;;5073927;28;20052;-48
2022/01/04 21:58:26;;;;;;;9.38;2.50;;;5.00;89.00;;;;;;5072280;28;20016;-49
2022/01/04 22:00:51;;;;;;;13.48;4.03;;;5.00;88.60;;;;;;5073606;28;20025;-47
2022/01/04 22:03:17;;;;;;;7.68;2.33;;;5.10;88.60;;;;;;5072929;28;20020;-49
2022/01/04 22:05:43;;;;;;;6.65;2.88;;;5.20;88.10;;;;;;5073370;28;20020;-48
2022/01/04 22:08:09;;;;;;;13.07;2.58;;;5.30;87.70;;;;;;5073625;28;20054;-51
2022/01/04 22:10:35;;;;;;;8.13;2.42;;;5.30;86.70;;;;;;5073220;28;20381;-49
2022/01/04 22:13:01;;;;;;;8.95;2.25;;;5.40;86.40;;;;;;5073442;28;20028;-51
2022/01/04 22:15:26;;;;;;;7.30;2.22;;;5.20;85.60;;;;;;5073401;28;20077;-51
2022/01/04 22:17:52;;;;;;;11.48;2.05;;;5.30;85.60;;;;;;5073235;28;20037;-48
2022/01/04 22:20:18;;;;;;;10.05;3.22;;;5.30;85.50;;;;;;5073191;28;20033;-48
2022/01/04 22:22:43;;;;;;;8.98;2.30;;;5.50;84.70;;;;;;5073111;28;20020;-52
2022/01/04 22:25:09;;;;;;;9.20;2.80;;;5.50;84.70;;;;;;5077113;28;20020;-49
2022/01/04 22:27:35;;;;;;;8.23;2.03;;;5.30;84.70;;;;;;5079007;28;20393;-49
2022/01/04 22:30:03;;;;;;;18.00;2.70;;;5.40;85.10;;;;;;5078161;28;20031;-50
2022/01/04 22:32:31;;;;;;;5.68;2.60;;;5.40;85.00;;;;;;5078143;28;20087;-49
2022/01/04 22:34:57;;;;;;;7.75;2.75;;;5.40;84.50;;;;;;5078755;28;20042;-48
2022/01/04 22:37:23;;;;;;;10.90;2.33;;;5.30;84.10;;;;;;5077831;28;20028;-51
2022/01/04 22:39:49;;;;;;;5.72;2.17;;;5.30;83.20;;;;;;5077113;28;20037;-49
2022/01/04 22:42:14;;;;;;;7.80;2.25;;;5.30;83.40;;;;;;5076763;28;20408;-50
2022/01/04 22:44:40;;;;;;;5.07;1.90;;;5.10;83.50;;;;;;5077816;28;20058;-52
2022/01/04 22:47:07;;;;;;;5.85;1.95;;;5.10;84.00;;;;;;5076992;28;20476;-50
2022/01/04 22:49:33;;;;;;;10.02;2.17;;;5.30;83.00;;;;;;5076870;28;20024;-48
2022/01/04 22:51:59;;;;;;;6.35;2.63;;;5.40;82.30;;;;;;5077951;28;20105;-51
2022/01/04 22:54:24;;;;;;;9.02;2.78;;;5.40;82.90;;;;;;5077506;28;20082;-52
2022/01/04 22:56:50;;;;;;;10.18;2.80;;;5.40;82.70;;;;;;5077229;28;20028;-49
2022/01/04 22:59:16;;;;;;;11.18;2.22;;;5.10;83.40;;;;;;5076935;28;20028;-49
